Time;durP1;ratioP1;P1;durP2;ratioP2;P2;SDS_P1;SDS_P2;PMS_P1;PMS_P2;Temp;Humidity;BMP_temperature;BMP_pressure;BME280_temperature;BME280_humidity;BME280_pressure;Samples;Min_cycle;Max_cycle;Signal;HPM_P1;HPM_P2
2022/01/11 00:00:20;;;;;;;16.38;7.97;;;;;;;-0.11;100.00;99839.53;5024448;28;20199;-67
2022/01/11 00:02:47;;;;;;;18.58;7.60;;;;;;;-0.06;100.00;99827.63;5024553;28;20022;-67
2022/01/11 00:05:22;;;;;;;17.92;7.38;;;;;;;-0.02;100.00;99831.25;5024458;28;20080;-67
2022/01/11 00:07:47;;;;;;;31.45;6.32;;;;;;;-0.15;100.00;99832.44;5024541;28;20014;-67
2022/01/11 00:10:21;;;;;;;17.17;5.90;;;;;;;-0.18;100.00;99821.94;5023907;28;20036;-67
2022/01/11 00:12:47;;;;;;;20.42;6.32;;;;;;;-0.20;100.00;99828.78;5024030;28;20021;-67
2022/01/11 00:15:12;;;;;;;26.50;7.40;;;;;;;-0.24;100.00;99828.59;5023756;28;20068;-67
2022/01/11 00:17:38;;;;;;;17.80;7.45;;;;;;;-0.20;100.00;99827.88;5023994;28;20029;-67
2022/01/11 00:20:04;;;;;;;19.25;7.95;;;;;;;-0.33;100.00;99834.28;5024216;28;20337;-67
2022/01/11 00:22:33;;;;;;;33.05;6.95;;;;;;;-0.39;100.00;99830.53;5024256;28;20045;-67
2022/01/11 00:24:58;;;;;;;39.53;6.18;;;;;;;-0.52;100.00;99834.31;5024031;28;20037;-67
2022/01/11 00:27:24;;;;;;;12.93;5.25;;;;;;;-0.55;100.00;99834.16;5023989;28;20053;-67
2022/01/11 00:29:52;;;;;;;12.00;6.45;;;;;;;-0.48;100.00;99836.19;5023876;28;20053;-67
2022/01/11 00:32:27;;;;;;;11.93;5.38;;;;;;;-0.48;100.00;99836.19;5024030;28;20084;-67
2022/01/11 00:34:55;;;;;;;25.05;5.88;;;;;;;-0.53;100.00;99827.34;5024232;28;20320;-66
2022/01/11 00:37:21;;;;;;;13.82;6.03;;;;;;;-0.40;100.00;99837.41;5024089;28;20277;-66
2022/01/11 00:39:49;;;;;;;17.25;6.13;;;;;;;-0.40;100.00;99828.75;5024193;28;20018;-66
2022/01/11 00:42:16;;;;;;;26.42;6.25;;;;;;;-0.39;100.00;99831.41;5024150;28;20025;-66
2022/01/11 00:44:41;;;;;;;24.27;6.13;;;;;;;-0.54;100.00;99841.09;5023836;28;20024;-66
2022/01/11 00:47:07;;;;;;;26.15;6.15;;;;;;;-0.52;100.00;99841.16;5023565;28;20084;-66
2022/01/11 00:49:34;;;;;;;10.93;5.63;;;;;;;-0.38;100.00;99847.84;5023821;28;20022;-66
2022/01/11 00:52:00;;;;;;;16.02;6.38;;;;;;;-0.44;100.00;99847.56;5023157;28;20024;-66
2022/01/11 00:54:25;;;;;;;22.15;7.63;;;;;;;-0.43;100.00;99850.22;5023301;28;20006;-66
2022/01/11 00:56:51;;;;;;;23.38;6.20;;;;;;;-0.34;100.00;99845.41;5023304;28;20041;-66
2022/01/11 00:59:16;;;;;;;16.98;7.22;;;;;;;-0.37;100.00;99850.47;5023276;28;20124;-66
2022/01/11 01:01:42;;;;;;;18.05;5.88;;;;;;;-0.38;100.00;99850.41;5023448;28;20081;-66
2022/01/11 01:04:08;;;;;;;13.23;5.88;;;;;;;-0.30;100.00;99852.50;5023125;28;20317;-66
2022/01/11 01:06:33;;;;;;;9.98;5.10;;;;;;;-0.31;100.00;99850.72;5023475;28;20088;-66
2022/01/11 01:08:59;;;;;;;15.70;6.13;;;;;;;-0.42;100.00;99848.50;5023083;28;20337;-66
2022/01/11 01:11:25;;;;;;;12.55;4.88;;;;;;;-0.41;100.00;99852.88;5024245;28;20048;-67
2022/01/11 01:13:51;;;;;;;19.25;6.15;;;;;;;-0.53;100.00;99862.69;5023355;28;20052;-67
2022/01/11 01:16:16;;;;;;;15.15;6.25;;;;;;;-0.58;100.00;99854.72;5023623;28;20018;-67
2022/01/11 01:18:42;;;;;;;10.02;5.03;;;;;;;-0.56;100.00;99862.53;5023094;28;20355;-67
2022/01/11 01:21:07;;;;;;;23.98;6.90;;;;;;;-0.63;100.00;99863.97;5023672;28;20085;-67
2022/01/11 01:23:33;;;;;;;22.85;6.30;;;;;;;-0.59;100.00;99868.47;5027331;28;20089;-67
2022/01/11 01:25:59;;;;;;;21.92;5.90;;;;;;;-0.52;100.00;99865.34;5027269;28;20047;-67
2022/01/11 01:28:25;;;;;;;11.80;6.35;;;;;;;-0.51;100.00;99872.25;5027371;28;20021;-67
2022/01/11 01:30:52;;;;;;;17.50;6.10;;;;;;;-0.68;100.00;99862.91;5026835;28;20064;-67
2022/01/11 01:33:19;;;;;;;15.88;6.95;;;;;;;-0.50;100.00;99874.03;5027070;28;20077;-67
2022/01/11 01:35:50;;;;;;;16.02;6.25;;;;;;;-0.35;100.00;99877.28;5026912;28;20018;-67
2022/01/11 01:38:21;;;;;;;11.00;4.90;;;;;;;-0.54;100.00;99877.31;5027044;28;20318;-67
2022/01/11 01:40:47;;;;;;;12.20;6.60;;;;;;;-0.63;100.00;99876.88;5026849;28;20381;-67
2022/01/11 01:43:13;;;;;;;14.13;6.45;;;;;;;-0.63;100.00;99874.31;5026615;28;20029;-67
2022/01/11 01:45:43;;;;;;;12.80;6.63;;;;;;;-0.65;100.00;99877.66;5026737;28;20013;-67
2022/01/11 01:48:09;;;;;;;18.25;8.05;;;;;;;-0.66;100.00;99871.59;5024059;28;20021;-67
2022/01/11 01:50:35;;;;;;;14.27;6.82;;;;;;;-0.56;100.00;99873.78;5026968;28;20084;-67
2022/01/11 01:53:03;;;;;;;13.13;5.38;;;;;;;-0.57;100.00;99881.47;5026627;28;20018;-67
2022/01/11 01:55:29;;;;;;;14.15;7.00;;;;;;;-0.54;100.00;99869.53;5026737;28;20331;-67
2022/01/11 01:57:54;;;;;;;20.50;7.38;;;;;;;-0.56;100.00;99873.78;5026467;28;20017;-67
2022/01/11 02:00:22;;;;;;;16.52;6.97;;;;;;;-0.51;100.00;99880.03;5026664;28;20217;-67
2022/01/11 02:02:47;;;;;;;13.38;6.00;;;;;;;-0.50;100.00;99879.19;5026511;28;20309;-67
2022/01/11 02:05:13;;;;;;;12.10;5.30;;;;;;;-0.55;100.00;99875.53;5026275;28;20056;-67
2022/01/11 02:07:39;;;;;;;14.35;7.00;;;;;;;-0.71;100.00;99875.69;5026416;28;20018;-67
2022/01/11 02:10:06;;;;;;;11.75;5.30;;;;;;;-0.79;100.00;99874.44;5026297;28;20064;-67
2022/01/11 02:12:32;;;;;;;15.30;5.25;;;;;;;-0.90;100.00;99882.53;5026176;28;20257;-67
2022/01/11 02:14:58;;;;;;;13.70;5.72;;;;;;;-0.96;100.00;99880.56;5026201;28;20076;-67
2022/01/11 02:17:28;;;;;;;9.73;4.50;;;;;;;-0.98;100.00;99886.50;5026304;28;20416;-67
2022/01/11 02:19:57;;;;;;;9.15;4.63;;;;;;;-0.89;100.00;99887.78;5026062;28;20044;-67
2022/01/11 02:22:24;;;;;;;13.95;5.68;;;;;;;-0.90;100.00;99893.78;5026049;28;20026;-67
2022/01/11 02:24:49;;;;;;;14.45;5.45;;;;;;;-0.95;100.00;99892.66;5026159;28;20053;-67
2022/01/11 02:27:15;;;;;;;11.05;5.35;;;;;;;-1.06;100.00;99899.06;5026214;28;20396;-67
2022/01/11 02:29:42;;;;;;;10.48;4.45;;;;;;;-0.93;100.00;99896.22;5026375;28;20029;-67
2022/01/11 02:32:07;;;;;;;18.80;6.57;;;;;;;-0.88;100.00;99889.53;5026250;28;20064;-67
2022/01/11 02:34:33;;;;;;;17.63;5.45;;;;;;;-0.90;100.00;99895.47;5025595;28;20046;-67
2022/01/11 02:36:59;;;;;;;17.30;6.72;;;;;;;-0.94;100.00;99902.22;5026096;28;20068;-67
2022/01/11 02:39:24;;;;;;;10.38;5.85;;;;;;;-0.86;100.00;99893.09;5025842;28;20034;-67
2022/01/11 02:41:54;;;;;;;12.68;4.97;;;;;;;-0.84;100.00;99895.75;5026201;28;20026;-67
2022/01/11 02:44:20;;;;;;;11.30;6.25;;;;;;;-0.87;100.00;99891.31;5026064;28;20026;-67
2022/01/11 02:46:46;;;;;;;15.55;5.43;;;;;;;-0.93;100.00;99895.31;5025971;28;20034;-67
2022/01/11 02:49:12;;;;;;;16.02;6.50;;;;;;;-0.94;100.00;99899.63;5025854;28;20021;-67
2022/01/11 02:51:37;;;;;;;11.20;5.10;;;;;;;-0.87;100.00;99896.50;5026003;28;20087;-67
2022/01/11 02:54:05;;;;;;;17.95;6.80;;;;;;;-0.85;100.00;99904.31;5025967;28;20391;-67
2022/01/11 02:56:30;;;;;;;11.05;5.75;;;;;;;-0.86;100.00;99897.34;5025723;28;20068;-67
2022/01/11 02:58:55;;;;;;;9.50;4.78;;;;;;;-0.82;100.00;99907.91;5025515;28;20021;-67
2022/01/11 03:01:21;;;;;;;10.98;4.93;;;;;;;-0.78;100.00;99906.34;5025707;28;20021;-67
2022/01/11 03:03:47;;;;;;;12.60;5.95;;;;;;;-0.85;100.00;99912.06;5025818;28;20325;-67
2022/01/11 03:06:13;;;;;;;17.25;6.75;;;;;;;-0.94;100.00;99915.13;5025938;28;20191;-67
2022/01/11 03:08:43;;;;;;;10.23;6.18;;;;;;;-1.18;100.00;99908.81;5025638;28;20081;-67
2022/01/11 03:11:11;;;;;;;9.02;5.32;;;;;;;-1.03;100.00;99908.63;5025379;28;20064;-67
2022/01/11 03:13:38;;;;;;;10.55;5.22;;;;;;;-1.01;100.00;99915.63;5025712;28;20084;-67
2022/01/11 03:16:04;;;;;;;17.90;5.40;;;;;;;-0.96;100.00;99916.75;5025180;28;20080;-67
2022/01/11 03:18:30;;;;;;;14.85;6.38;;;;;;;-0.88;100.00;99912.78;5025368;28;20214;-67
2022/01/11 03:20:56;;;;;;;14.27;5.43;;;;;;;-0.87;100.00;99914.59;5025597;28;20025;-67
2022/01/11 03:23:22;;;;;;;12.23;6.20;;;;;;;-0.78;100.00;99917.59;5024993;28;20052;-67
2022/01/11 03:25:50;;;;;;;10.55;5.07;;;;;;;-0.80;100.00;99919.22;5022384;28;20219;-67
2022/01/11 03:28:16;;;;;;;14.25;6.32;;;;;;;-0.86;100.00;99924.09;5025213;28;20478;-67
2022/01/11 03:30:41;;;;;;;9.60;4.82;;;;;;;-0.75;100.00;99917.72;5025180;28;20030;-67
2022/01/11 03:33:08;;;;;;;14.82;6.05;;;;;;;-0.65;100.00;99922.50;5025340;28;20014;-67
2022/01/11 03:35:35;;;;;;;12.73;5.88;;;;;;;-0.68;100.00;99919.78;5025205;28;20241;-67
2022/01/11 03:38:00;;;;;;;12.30;5.43;;;;;;;-0.67;100.00;99924.13;5018564;28;20116;-67
2022/01/11 03:40:27;;;;;;;13.40;5.68;;;;;;;-0.77;100.00;99929.69;5024836;28;20030;-67
2022/01/11 03:42:53;;;;;;;17.73;6.40;;;;;;;-0.76;100.00;99931.44;5024954;28;20021;-67
2022/01/11 03:45:22;;;;;;;11.52;5.30;;;;;;;-0.84;100.00;99922.47;5024578;28;20028;-67
2022/01/11 03:47:50;;;;;;;10.10;4.70;;;;;;;-0.80;100.00;99929.53;5024896;28;20037;-67
2022/01/11 03:50:16;;;;;;;14.43;6.47;;;;;;;-0.83;99.84;99934.56;5024954;28;20068;-67
2022/01/11 03:52:43;;;;;;;14.60;6.20;;;;;;;-1.04;100.00;99928.41;5024676;28;20025;-67
2022/01/11 03:55:12;;;;;;;18.33;6.78;;;;;;;-1.06;100.00;99934.31;5024715;28;20041;-67
2022/01/11 03:57:40;;;;;;;12.20;5.63;;;;;;;-0.97;100.00;99935.66;5025220;28;20313;-67
2022/01/11 04:00:14;;;;;;;14.23;6.07;;;;;;;-1.05;100.00;99931.81;5024634;28;20072;-67
2022/01/11 04:02:41;;;;;;;12.27;5.70;;;;;;;-0.96;100.00;99934.84;5024478;28;20317;-67
2022/01/11 04:05:07;;;;;;;9.60;4.72;;;;;;;-0.95;100.00;99933.16;5023782;28;20209;-67
2022/01/11 04:07:33;;;;;;;13.02;5.03;;;;;;;-0.99;100.00;99932.09;5024409;28;20041;-67
2022/01/11 04:10:00;;;;;;;13.05;5.82;;;;;;;-1.08;100.00;99936.84;5024506;28;20084;-67
2022/01/11 04:12:25;;;;;;;13.13;6.00;;;;;;;-1.06;100.00;99936.91;5024713;28;20040;-67
2022/01/11 04:14:51;;;;;;;11.40;5.47;;;;;;;-1.14;100.00;99946.03;5024302;28;20305;-67
2022/01/11 04:17:17;;;;;;;10.48;5.20;;;;;;;-1.22;100.00;99943.06;5024508;28;20026;-67
2022/01/11 04:19:43;;;;;;;25.02;5.43;;;;;;;-1.30;100.00;99944.38;5024159;28;20029;-67
2022/01/11 04:22:08;;;;;;;12.38;5.60;;;;;;;-1.23;100.00;99946.44;5024182;28;20045;-67
2022/01/11 04:24:34;;;;;;;9.32;5.20;;;;;;;-1.08;100.00;99952.34;5023890;28;20022;-67
2022/01/11 04:26:59;;;;;;;16.42;5.60;;;;;;;-0.98;100.00;99962.28;5024163;28;20352;-67
2022/01/11 04:29:25;;;;;;;10.93;4.95;;;;;;;-0.99;100.00;99957.94;5023832;28;20029;-67
2022/01/11 04:31:51;;;;;;;9.05;4.78;;;;;;;-1.05;100.00;99952.50;5024146;28;20025;-67
2022/01/11 04:34:17;;;;;;;13.85;5.15;;;;;;;-1.21;100.00;99954.25;5023933;28;20022;-67
2022/01/11 04:36:43;;;;;;;11.10;5.28;;;;;;;-1.07;100.00;99964.47;5023950;28;20026;-67
2022/01/11 04:39:12;;;;;;;14.55;5.32;;;;;;;-1.15;100.00;99955.44;5023646;28;20022;-67
2022/01/11 04:41:38;;;;;;;10.13;5.47;;;;;;;-1.08;100.00;99956.66;5020280;28;20396;-67
2022/01/11 04:44:04;;;;;;;11.02;5.30;;;;;;;-1.16;100.00;99966.63;5015868;28;20334;-67
2022/01/11 04:46:30;;;;;;;13.18;5.03;;;;;;;-0.98;100.00;99964.00;5008034;28;20387;-67
2022/01/11 04:48:56;;;;;;;8.02;3.63;;;;;;;-1.13;100.00;99964.19;5019583;28;20021;-67
2022/01/11 04:51:24;;;;;;;14.82;5.78;;;;;;;-1.17;100.00;99967.41;5003836;28;20279;-67
2022/01/11 04:53:49;;;;;;;11.68;5.50;;;;;;;-1.03;100.00;99971.53;5010282;28;20052;-67
2022/01/11 04:56:16;;;;;;;11.88;5.03;;;;;;;-1.10;100.00;99973.75;5012139;28;20218;-67
2022/01/11 04:58:41;;;;;;;12.35;5.82;;;;;;;-1.24;100.00;99970.50;5016141;28;20212;-67
2022/01/11 05:01:07;;;;;;;11.68;5.45;;;;;;;-1.26;100.00;99973.84;5023366;28;20084;-67
2022/01/11 05:03:33;;;;;;;12.68;5.50;;;;;;;-1.27;100.00;99974.66;5016206;28;20053;-67
2022/01/11 05:05:58;;;;;;;10.93;5.40;;;;;;;-1.17;100.00;99977.72;5023046;28;20101;-67
2022/01/11 05:08:24;;;;;;;11.88;5.85;;;;;;;-1.11;100.00;99969.41;5017382;28;20088;-67
2022/01/11 05:10:50;;;;;;;13.30;5.57;;;;;;;-1.36;100.00;99982.81;5004497;28;20093;-67
2022/01/11 05:13:17;;;;;;;14.93;6.03;;;;;;;-1.39;100.00;99980.09;5004505;28;20199;-67
2022/01/11 05:15:43;;;;;;;16.60;5.75;;;;;;;-1.42;100.00;99977.41;5004747;28;20018;-67
2022/01/11 05:18:10;;;;;;;14.18;5.47;;;;;;;-1.43;100.00;99980.75;5004431;28;20331;-67
2022/01/11 05:20:36;;;;;;;9.65;4.90;;;;;;;-1.38;100.00;99976.72;5004701;28;20314;-67
2022/01/11 05:23:02;;;;;;;11.75;5.53;;;;;;;-1.28;100.00;99988.38;5004299;28;20030;-67
2022/01/11 05:25:28;;;;;;;18.58;7.47;;;;;;;-1.23;100.00;99987.75;5004101;28;20054;-67
2022/01/11 05:27:54;;;;;;;13.18;5.75;;;;;;;-1.38;100.00;99983.56;5004362;28;20030;-67
2022/01/11 05:30:20;;;;;;;15.45;7.25;;;;;;;-1.29;100.00;99986.59;5004349;28;20029;-67
2022/01/11 05:32:48;;;;;;;11.63;6.40;;;;;;;-1.29;100.00;99987.50;5004339;28;20026;-67
2022/01/11 05:35:14;;;;;;;18.83;6.07;;;;;;;-1.24;100.00;99986.00;5004319;28;20022;-67
2022/01/11 05:37:39;;;;;;;17.55;5.57;;;;;;;-1.37;100.00;99985.34;5004527;28;20025;-67
2022/01/11 05:40:07;;;;;;;13.60;5.07;;;;;;;-1.26;100.00;99986.75;5004274;28;20022;-67
2022/01/11 05:42:33;;;;;;;11.90;6.28;;;;;;;-1.31;100.00;99989.13;5004494;28;20217;-67
2022/01/11 05:44:58;;;;;;;16.45;7.28;;;;;;;-1.25;100.00;99998.84;5004589;28;20046;-67
2022/01/11 05:47:24;;;;;;;26.45;6.18;;;;;;;-1.30;100.00;99996.03;5004198;28;20022;-67
2022/01/11 05:49:50;;;;;;;12.95;5.60;;;;;;;-1.42;100.00;99999.72;5004162;28;20086;-67
2022/01/11 05:52:15;;;;;;;11.77;5.45;;;;;;;-1.43;100.00;100004.00;5004171;28;20022;-67
2022/01/11 05:54:41;;;;;;;15.38;7.20;;;;;;;-1.29;100.00;100013.31;5004156;28;20076;-67
2022/01/11 05:57:06;;;;;;;11.48;5.38;;;;;;;-1.31;100.00;100009.78;5004102;28;20106;-67
2022/01/11 05:59:31;;;;;;;13.68;6.68;;;;;;;-1.30;100.00;100021.88;5004102;28;20093;-67
2022/01/11 06:01:57;;;;;;;24.83;5.88;;;;;;;-1.29;100.00;100028.81;5004113;28;20026;-67
2022/01/11 06:04:24;;;;;;;14.80;6.30;;;;;;;-1.34;100.00;100019.94;5004282;28;20027;-67
2022/01/11 06:06:49;;;;;;;12.07;6.25;;;;;;;-1.33;100.00;100018.28;5002183;28;20030;-67
2022/01/11 06:09:14;;;;;;;17.45;6.22;;;;;;;-1.30;100.00;100021.88;5005955;28;20089;-67
2022/01/11 06:11:40;;;;;;;11.60;6.38;;;;;;;-1.28;100.00;100020.25;5007732;28;20025;-67
2022/01/11 06:14:05;;;;;;;18.70;7.95;;;;;;;-1.24;100.00;100019.59;5007929;28;20268;-67
2022/01/11 06:16:31;;;;;;;13.88;6.25;;;;;;;-1.21;100.00;100017.16;5007616;28;20026;-67
2022/01/11 06:18:56;;;;;;;16.50;7.68;;;;;;;-1.22;100.00;100010.22;5007611;28;20321;-67
2022/01/11 06:21:22;;;;;;;13.75;5.57;;;;;;;-1.17;100.00;100019.06;5007579;28;20341;-67
2022/01/11 06:23:47;;;;;;;12.93;6.22;;;;;;;-1.21;100.00;100014.56;5007356;28;20093;-67
2022/01/11 06:26:14;;;;;;;14.80;6.25;;;;;;;-1.19;100.00;100018.13;5007278;28;20321;-67
2022/01/11 06:28:40;;;;;;;13.63;5.97;;;;;;;-1.16;100.00;100019.97;5007450;28;20318;-67
2022/01/11 06:31:07;;;;;;;14.55;6.28;;;;;;;-1.14;100.00;100019.22;5007381;28;20032;-67
2022/01/11 06:33:32;;;;;;;14.10;6.43;;;;;;;-1.26;100.00;100021.22;5007328;28;20037;-67
2022/01/11 06:35:58;;;;;;;12.70;6.13;;;;;;;-1.31;100.00;100025.28;5007264;28;20045;-67
2022/01/11 06:38:23;;;;;;;16.10;7.10;;;;;;;-1.31;100.00;100025.28;5007210;28;20022;-67
2022/01/11 06:40:49;;;;;;;11.70;5.47;;;;;;;-1.34;100.00;100030.28;5007188;28;20030;-67
2022/01/11 06:43:14;;;;;;;14.15;6.57;;;;;;;-1.44;100.00;100028.06;5007004;28;20022;-67
2022/01/11 06:45:40;;;;;;;14.93;5.60;;;;;;;-1.48;100.00;100020.09;5036597;28;20045;-67
2022/01/11 06:48:05;;;;;;;11.98;5.72;;;;;;;-1.41;100.00;100028.22;5031778;28;20209;-67
2022/01/11 06:50:31;;;;;;;14.15;7.32;;;;;;;-1.48;100.00;100031.31;5029473;28;20092;-67
2022/01/11 06:52:57;;;;;;;13.63;6.60;;;;;;;-1.63;100.00;100022.78;5025595;28;20053;-67
2022/01/11 06:55:22;;;;;;;14.88;6.43;;;;;;;-1.62;100.00;100021.09;5025175;28;20025;-67
2022/01/11 06:57:48;;;;;;;19.83;7.53;;;;;;;-1.70;100.00;100028.47;5025816;28;20258;-67
2022/01/11 07:00:14;;;;;;;18.52;7.30;;;;;;;-1.65;100.00;100026.97;5026091;28;20029;-67
2022/01/11 07:02:40;;;;;;;16.75;7.57;;;;;;;-1.69;100.00;100019.91;5045261;28;20220;-67
2022/01/11 07:05:06;;;;;;;14.85;5.85;;;;;;;-1.72;100.00;100013.69;5045171;28;20056;-67
2022/01/11 07:07:32;;;;;;;16.45;7.60;;;;;;;-1.76;100.00;100020.41;5044773;28;20224;-67
2022/01/11 07:09:57;;;;;;;10.68;5.30;;;;;;;-1.80;100.00;100015.91;5045130;28;20029;-67
2022/01/11 07:12:23;;;;;;;17.77;6.57;;;;;;;-1.85;100.00;100027.66;5045107;28;20325;-67
2022/01/11 07:14:48;;;;;;;14.45;6.57;;;;;;;-1.99;100.00;100028.66;5045053;28;20027;-67
2022/01/11 07:17:15;;;;;;;12.25;6.50;;;;;;;-1.98;100.00;100033.00;5045033;28;20033;-67
2022/01/11 07:19:41;;;;;;;12.50;5.65;;;;;;;-2.03;99.79;100026.72;5044892;28;20049;-67
2022/01/11 07:22:07;;;;;;;25.42;7.95;;;;;;;-2.13;99.88;100029.63;5044516;28;20032;-67
2022/01/11 07:24:32;;;;;;;12.98;6.07;;;;;;;-2.29;99.58;100032.22;5044749;28;20033;-67
2022/01/11 07:26:58;;;;;;;11.38;4.95;;;;;;;-2.17;99.67;100032.88;5044674;28;20091;-67
2022/01/11 07:29:24;;;;;;;10.93;5.43;;;;;;;-2.14;99.92;100033.03;5044754;28;20060;-67
2022/01/11 07:31:49;;;;;;;12.25;6.43;;;;;;;-2.14;99.65;100043.34;5044988;28;20025;-67
2022/01/11 07:34:16;;;;;;;10.65;5.78;;;;;;;-2.20;99.61;100045.59;5016816;28;20076;-67
2022/01/11 07:36:42;;;;;;;15.60;6.28;;;;;;;-2.18;99.63;100045.69;5022952;28;20026;-67
2022/01/11 07:39:08;;;;;;;14.50;6.03;;;;;;;-2.07;99.70;100050.59;5025649;28;20021;-67
2022/01/11 07:41:34;;;;;;;13.70;7.05;;;;;;;-2.17;99.81;100052.59;5025694;28;20097;-67
2022/01/11 07:43:59;;;;;;;18.40;6.28;;;;;;;-2.11;99.86;100058.97;5025531;28;20029;-67
2022/01/11 07:46:25;;;;;;;17.10;6.15;;;;;;;-2.07;99.64;100066.06;5025544;28;20093;-67
2022/01/11 07:48:51;;;;;;;16.70;7.40;;;;;;;-2.05;99.77;100059.31;5025527;28;20111;-67
2022/01/11 07:51:17;;;;;;;17.60;7.88;;;;;;;-2.03;99.67;100078.31;5025507;28;20348;-67
2022/01/11 07:53:42;;;;;;;16.10;7.70;;;;;;;-1.96;99.74;100070.13;5025516;28;20022;-67
2022/01/11 07:56:08;;;;;;;13.13;5.85;;;;;;;-1.92;99.89;100072.03;5025403;28;20033;-67
2022/01/11 07:58:34;;;;;;;14.70;7.90;;;;;;;-1.96;99.74;100074.38;5025642;28;20032;-67
2022/01/11 08:00:59;;;;;;;18.75;7.10;;;;;;;-2.00;99.93;100072.44;5025356;28;20037;-67
2022/01/11 08:03:25;;;;;;;19.45;7.30;;;;;;;-2.00;99.44;100078.47;5025190;28;20096;-67
2022/01/11 08:05:52;;;;;;;15.18;6.95;;;;;;;-2.13;99.00;100081.22;5025250;28;20026;-67
2022/01/11 08:08:17;;;;;;;22.58;6.75;;;;;;;-2.33;99.21;100081.84;5025439;28;20317;-67
2022/01/11 08:10:43;;;;;;;18.58;7.53;;;;;;;-2.31;99.69;100090.56;5025191;28;20133;-67
2022/01/11 08:13:10;;;;;;;12.00;6.57;;;;;;;-2.35;100.00;100093.75;5025103;28;20221;-67
2022/01/11 08:15:37;;;;;;;20.38;7.10;;;;;;;-2.38;100.00;100093.59;5025016;28;20028;-67
2022/01/11 08:18:05;;;;;;;17.55;8.93;;;;;;;-2.42;100.00;100102.88;5024995;28;20335;-67
2022/01/11 08:20:31;;;;;;;18.67;8.23;;;;;;;-2.38;100.00;100101.31;5024996;28;20029;-67
2022/01/11 08:22:57;;;;;;;20.73;9.20;;;;;;;-2.36;100.00;100102.31;5024848;28;20104;-67
2022/01/11 08:25:24;;;;;;;16.38;8.55;;;;;;;-2.15;100.00;100108.63;5024638;28;20025;-67
2022/01/11 08:27:50;;;;;;;21.58;8.63;;;;;;;-2.08;100.00;100105.56;5024799;28;20089;-67
2022/01/11 08:30:16;;;;;;;22.98;7.95;;;;;;;-1.99;100.00;100106.06;5024794;28;20030;-67
2022/01/11 08:32:41;;;;;;;16.00;8.48;;;;;;;-1.61;100.00;100111.53;5024064;28;20032;-67
2022/01/11 08:35:08;;;;;;;21.88;9.48;;;;;;;-0.82;99.98;100112.09;5024659;28;20084;-67
2022/01/11 08:37:34;;;;;;;23.08;10.18;;;;;;;-0.32;97.44;100112.81;5024960;28;20313;-67
2022/01/11 08:39:59;;;;;;;22.77;10.98;;;;;;;0.50;94.33;100108.78;5024698;28;20032;-67
2022/01/11 08:42:27;;;;;;;21.27;10.00;;;;;;;1.48;89.90;100118.97;5024597;28;20030;-67
2022/01/11 08:44:53;;;;;;;30.30;10.52;;;;;;;1.76;86.22;100112.31;5024729;28;20030;-67
2022/01/11 08:47:20;;;;;;;45.97;16.25;;;;;;;1.79;85.18;100117.63;5024531;28;20325;-67
2022/01/11 08:49:46;;;;;;;42.53;12.77;;;;;;;2.14;84.43;100117.25;5024514;28;20034;-67
2022/01/11 08:52:13;;;;;;;54.00;19.38;;;;;;;2.76;82.28;100113.44;5024444;28;20030;-67
2022/01/11 08:54:39;;;;;;;95.22;30.90;;;;;;;2.91;80.02;100112.22;5024395;28;20053;-67
2022/01/11 08:57:05;;;;;;;80.20;30.52;;;;;;;3.07;81.39;100105.84;5024361;28;20033;-67
2022/01/11 08:59:31;;;;;;;59.67;22.40;;;;;;;3.89;78.56;100118.06;5024402;28;20086;-67
2022/01/11 09:01:59;;;;;;;91.95;30.27;;;;;;;4.12;76.21;100123.09;5024297;28;20054;-67
2022/01/11 09:04:26;;;;;;;78.85;25.63;;;;;;;3.51;77.64;100110.78;5024227;28;20034;-67
2022/01/11 09:06:57;;;;;;;42.20;16.52;;;;;;;4.10;77.22;100124.81;5024227;28;20375;-67
2022/01/11 09:09:23;;;;;;;42.67;15.75;;;;;;;4.65;75.22;100105.53;5024213;28;20022;-67
2022/01/11 09:11:48;;;;;;;40.85;13.93;;;;;;;4.86;74.39;100116.50;5024186;28;20021;-67
2022/01/11 09:14:14;;;;;;;23.60;11.20;;;;;;;4.91;74.28;100114.91;5024157;28;20018;-67
2022/01/11 09:16:39;;;;;;;20.95;10.68;;;;;;;5.04;74.83;100102.25;5024130;28;20018;-67
2022/01/11 09:19:05;;;;;;;26.77;10.48;;;;;;;5.13;74.58;100112.91;5024344;28;20017;-67
2022/01/11 09:21:31;;;;;;;24.67;11.02;;;;;;;4.49;76.25;100110.31;5024112;28;20022;-67
2022/01/11 09:23:58;;;;;;;25.63;10.80;;;;;;;5.17;75.01;100119.09;5023937;28;20022;-67
2022/01/11 09:26:24;;;;;;;35.00;12.20;;;;;;;5.44;73.34;100125.00;5023891;28;20230;-67
2022/01/11 09:28:49;;;;;;;35.92;15.13;;;;;;;4.21;74.52;100112.97;5024003;28;20068;-68
2022/01/11 09:31:15;;;;;;;39.28;16.75;;;;;;;4.00;77.63;100125.38;5024046;28;20030;-68
2022/01/11 09:33:40;;;;;;;49.70;19.40;;;;;;;3.84;80.33;100123.13;5024203;28;20306;-68
2022/01/11 09:36:06;;;;;;;40.63;18.90;;;;;;;4.99;77.83;100121.22;5024192;28;20026;-68
2022/01/11 09:38:31;;;;;;;40.50;19.33;;;;;;;4.88;76.66;100115.75;5023890;28;20022;-68
2022/01/11 09:40:58;;;;;;;44.72;15.43;;;;;;;4.34;79.14;100117.69;5023895;28;20056;-68
2022/01/11 09:43:25;;;;;;;48.42;19.33;;;;;;;4.13;80.24;100119.69;5026159;28;20271;-67
2022/01/11 09:45:52;;;;;;;45.30;15.52;;;;;;;4.26;80.08;100121.81;5027873;28;20056;-67
2022/01/11 09:48:20;;;;;;;33.22;15.77;;;;;;;4.05;81.54;100126.38;5027814;28;20058;-68
2022/01/11 09:50:45;;;;;;;27.40;12.07;;;;;;;3.63;82.94;100130.28;5027761;28;20036;-68
2022/01/11 09:53:10;;;;;;;36.05;13.13;;;;;;;3.37;84.50;100131.16;5027723;28;20050;-68
2022/01/11 09:55:37;;;;;;;22.75;9.93;;;;;;;3.23;86.05;100129.81;5027688;28;20025;-68
2022/01/11 09:58:04;;;;;;;25.98;11.35;;;;;;;3.40;87.15;100131.25;5027655;28;20097;-67
2022/01/11 10:00:29;;;;;;;32.55;11.52;;;;;;;3.36;88.21;100128.50;5027592;28;20060;-67
2022/01/11 10:02:55;;;;;;;30.25;11.77;;;;;;;3.00;88.60;100135.94;5027527;28;20029;-67
2022/01/11 10:05:21;;;;;;;24.70;11.80;;;;;;;2.89;90.04;100129.53;5027428;28;20033;-67
2022/01/11 10:07:46;;;;;;;28.85;12.45;;;;;;;2.74;91.27;100131.56;5027491;28;20037;-67
2022/01/11 10:10:15;;;;;;;23.02;10.27;;;;;;;2.59;90.77;100128.44;5027432;28;20026;-67
2022/01/11 10:12:46;;;;;;;21.27;10.50;;;;;;;2.76;92.22;100127.31;5027346;28;20068;-67
2022/01/11 10:15:12;;;;;;;21.03;10.07;;;;;;;2.59;91.83;100128.44;5027392;28;20022;-67
2022/01/11 10:17:43;;;;;;;23.15;10.85;;;;;;;2.71;92.84;100136.66;5027285;28;20025;-67
2022/01/11 10:20:16;;;;;;;31.15;10.68;;;;;;;2.50;93.09;100132.44;5027196;28;20029;-67
2022/01/11 10:22:47;;;;;;;25.20;10.55;;;;;;;2.51;94.34;100145.47;5027253;28;20309;-67
2022/01/11 10:25:13;;;;;;;24.73;11.18;;;;;;;2.41;94.79;100138.19;5026946;28;20026;-67
2022/01/11 10:27:39;;;;;;;26.25;10.70;;;;;;;2.39;94.77;100145.03;5026923;28;20049;-67
2022/01/11 10:30:06;;;;;;;23.63;10.65;;;;;;;2.49;95.19;100146.22;5027034;28;20097;-67
2022/01/11 10:32:40;;;;;;;25.15;10.55;;;;;;;2.49;95.33;100146.22;5026969;28;20021;-67
2022/01/11 10:35:05;;;;;;;26.13;11.23;;;;;;;2.58;95.74;100138.75;5027009;28;20032;-67
2022/01/11 10:37:30;;;;;;;21.90;11.02;;;;;;;2.54;96.00;100149.88;5026869;28;20034;-67
2022/01/11 10:40:05;;;;;;;25.48;11.35;;;;;;;2.57;95.75;100140.50;5026870;28;20028;-67
2022/01/11 10:42:33;;;;;;;22.83;9.70;;;;;;;2.61;96.28;100137.19;5026814;28;20229;-67
2022/01/11 10:45:04;;;;;;;24.17;10.98;;;;;;;2.71;96.22;100139.25;5026675;28;20041;-67
2022/01/11 10:47:34;;;;;;;42.80;13.32;;;;;;;2.67;97.07;100140.00;5026784;28;20325;-67
2022/01/11 10:50:04;;;;;;;29.08;13.00;;;;;;;2.70;97.62;100147.91;5026629;28;20214;-67
2022/01/11 10:52:34;;;;;;;39.50;11.90;;;;;;;2.85;97.30;100143.22;5026646;28;20063;-67
2022/01/11 10:55:02;;;;;;;34.58;14.85;;;;;;;2.85;97.07;100143.22;5026116;28;20013;-67
2022/01/11 10:57:31;;;;;;;35.17;12.80;;;;;;;2.96;96.80;100144.50;5035476;28;20025;-67
2022/01/11 11:00:27;;;;;;;41.38;14.32;;;;;;;3.03;97.73;100148.16;5011409;28;20029;-67
2022/01/11 11:02:56;;;;;;;31.55;14.38;;;;;;;3.13;97.43;100139.88;5034453;28;20047;-67
2022/01/11 11:05:23;;;;;;;39.40;17.30;;;;;;;3.25;97.54;100146.34;5026814;28;20049;-67
2022/01/11 11:08:02;;;;;;;32.15;13.70;;;;;;;3.34;96.99;100145.78;5017844;28;20026;-67
2022/01/11 11:10:36;;;;;;;33.30;15.18;;;;;;;3.32;96.74;100144.88;5031668;28;20028;-67
2022/01/11 11:13:03;;;;;;;26.92;11.60;;;;;;;3.45;96.55;100145.28;5019198;28;20028;-67